Time;durP1;ratioP1;P1;durP2;ratioP2;P2;SDS_P1;SDS_P2;PMS_P1;PMS_P2;Temp;Humidity;BMP_temperature;BMP_pressure;BME280_temperature;BME280_humidity;BME280_pressure;Samples;Min_cycle;Max_cycle;Signal;HPM_P1;HPM_P2
2022/05/13 00:01:07;;;;;;;7.78;1.48;;;;;;;12.40;67.53;101198.44;4928790;29;20039;-75
2022/05/13 00:03:33;;;;;;;6.38;1.52;;;;;;;12.37;67.23;101193.47;4944695;29;20031;-75
2022/05/13 00:05:59;;;;;;;9.43;1.60;;;;;;;12.36;67.73;101188.16;4939442;29;20059;-75
2022/05/13 00:08:24;;;;;;;7.78;0.98;;;;;;;12.33;67.70;101183.19;4947781;29;20031;-75
2022/05/13 00:10:50;;;;;;;6.68;1.30;;;;;;;12.32;67.94;101198.22;4946407;28;20058;-75
2022/05/13 00:13:15;;;;;;;6.50;1.27;;;;;;;12.24;68.06;101203.28;4947718;28;20058;-75
2022/05/13 00:15:42;;;;;;;10.10;1.42;;;;;;;12.26;68.69;101198.28;4980335;28;20062;-75
2022/05/13 00:18:08;;;;;;;6.00;1.25;;;;;;;12.22;68.43;101204.69;4980410;28;20037;-75
2022/05/13 00:20:34;;;;;;;8.90;1.55;;;;;;;12.17;68.51;101197.19;4947559;28;20388;-75
2022/05/13 00:23:00;;;;;;;8.43;1.98;;;;;;;12.17;68.54;101201.94;4947249;28;20034;-75
2022/05/13 00:25:28;;;;;;;5.75;1.13;;;;;;;12.13;68.63;101200.84;4947342;28;20045;-75
2022/05/13 00:27:55;;;;;;;4.68;1.05;;;;;;;12.11;68.93;101201.13;4963427;28;20097;-74
2022/05/13 00:30:20;;;;;;;4.43;1.10;;;;;;;12.07;69.14;101206.44;4980399;28;20031;-75
2022/05/13 00:32:47;;;;;;;5.15;1.27;;;;;;;12.04;68.81;101198.69;4947235;28;20027;-75
2022/05/13 00:35:13;;;;;;;8.30;1.20;;;;;;;12.02;69.12;101198.13;4963578;28;20030;-75
2022/05/13 00:37:38;;;;;;;6.47;1.13;;;;;;;12.01;69.46;101204.00;4947240;28;20066;-75
2022/05/13 00:40:05;;;;;;;5.43;1.25;;;;;;;11.97;69.12;101194.53;4963363;28;20027;-75
2022/05/13 00:42:31;;;;;;;10.18;1.52;;;;;;;11.95;69.65;101199.56;4963003;28;20023;-75
2022/05/13 00:44:59;;;;;;;6.70;1.63;;;;;;;11.94;69.92;101197.91;4962893;28;20129;-75
2022/05/13 00:47:25;;;;;;;5.68;1.30;;;;;;;11.90;69.27;101191.25;4980177;28;20046;-75
2022/05/13 00:49:51;;;;;;;8.77;1.40;;;;;;;11.89;69.44;101189.56;4972251;28;20026;-75
2022/05/13 00:52:17;;;;;;;11.30;1.75;;;;;;;11.85;70.06;101186.50;4931392;28;20023;-75
2022/05/13 00:54:42;;;;;;;5.82;1.17;;;;;;;11.83;70.13;101185.94;4946881;28;20066;-75
2022/05/13 00:57:08;;;;;;;6.55;1.33;;;;;;;11.81;70.42;101188.19;4980004;28;20039;-75
2022/05/13 00:59:35;;;;;;;7.40;1.25;;;;;;;11.80;70.13;101187.34;4980268;28;20070;-75
2022/05/13 01:02:01;;;;;;;6.28;1.40;;;;;;;11.75;70.23;101183.75;4946541;28;20030;-75
2022/05/13 01:04:26;;;;;;;10.30;1.75;;;;;;;11.75;70.50;101180.97;4964530;28;20035;-75
2022/05/13 01:06:54;;;;;;;12.30;1.52;;;;;;;11.70;70.73;101181.84;4961581;28;20035;-75
2022/05/13 01:09:20;;;;;;;6.03;1.48;;;;;;;11.71;70.97;101183.50;4936269;29;20030;-75
2022/05/13 01:11:46;;;;;;;10.70;1.40;;;;;;;11.66;70.99;101182.69;4934251;29;20059;-75
2022/05/13 01:14:15;;;;;;;5.80;1.60;;;;;;;11.64;70.52;101174.63;4924318;29;20036;-75
2022/05/13 01:19:25;;;;;;;7.15;1.30;;;;;;;11.56;71.86;101181.63;4943235;29;20483;-75
2022/05/13 01:21:51;;;;;;;11.85;1.75;;;;;;;11.57;71.55;101183.28;4960260;29;20031;-75
2022/05/13 01:24:17;;;;;;;7.60;1.67;;;;;;;11.54;71.60;101181.06;4943120;29;20603;-75
2022/05/13 01:26:43;;;;;;;6.20;1.42;;;;;;;11.54;71.63;101186.63;4960360;29;20126;-75
2022/05/13 01:29:08;;;;;;;7.20;1.38;;;;;;;11.51;71.34;101186.38;4960521;29;20035;-75
2022/05/13 01:31:35;;;;;;;7.20;1.42;;;;;;;11.48;70.84;101179.44;4944881;29;20396;-75
2022/05/13 01:34:03;;;;;;;8.00;1.50;;;;;;;11.46;71.21;101178.06;4960208;28;20490;-75
2022/05/13 01:36:29;;;;;;;6.40;1.27;;;;;;;11.41;71.68;101171.38;4927081;29;20034;-75
2022/05/13 01:38:55;;;;;;;9.13;1.50;;;;;;;11.39;71.26;101176.41;4942813;29;20031;-75
2022/05/13 01:41:21;;;;;;;7.10;1.20;;;;;;;11.38;71.23;101176.69;4926935;29;20062;-75
2022/05/13 01:43:47;;;;;;;7.43;1.50;;;;;;;11.35;71.75;101175.28;4942721;29;20550;-75
2022/05/13 01:46:12;;;;;;;9.63;1.80;;;;;;;11.36;71.74;101176.94;4942591;29;20031;-75
2022/05/13 01:48:38;;;;;;;7.68;1.55;;;;;;;11.32;71.71;101173.09;4942428;29;20039;-75
2022/05/13 01:51:04;;;;;;;6.72;1.55;;;;;;;11.29;72.08;101183.94;4926971;29;20031;-75
2022/05/13 01:53:29;;;;;;;7.65;1.50;;;;;;;11.29;71.75;101182.00;4959691;29;20023;-75
2022/05/13 01:55:55;;;;;;;8.02;1.63;;;;;;;11.24;72.27;101179.22;4942385;29;20042;-75
2022/05/13 01:58:22;;;;;;;5.90;1.15;;;;;;;11.22;71.85;101187.00;4926513;29;20042;-75
2022/05/13 02:00:48;;;;;;;5.80;1.50;;;;;;;11.18;71.82;101189.53;4965092;28;20058;-75
2022/05/13 02:05:58;;;;;;;7.53;1.85;;;;;;;11.14;71.87;101187.59;4959515;29;20044;-75
2022/05/13 02:08:24;;;;;;;5.38;1.20;;;;;;;11.18;72.32;101185.91;4926339;29;20540;-75
2022/05/13 02:10:49;;;;;;;6.82;1.63;;;;;;;11.14;72.29;101187.59;4944276;28;20094;-75
2022/05/13 02:13:15;;;;;;;8.45;1.73;;;;;;;11.11;72.34;101182.59;4961238;28;20046;-75
2022/05/13 02:15:40;;;;;;;5.97;1.55;;;;;;;11.07;72.82;101199.00;4945194;28;20094;-75
2022/05/13 02:18:06;;;;;;;7.70;1.63;;;;;;;11.04;72.74;101180.09;4978440;28;20043;-75
2022/05/13 02:20:32;;;;;;;4.68;1.55;;;;;;;11.04;72.33;101184.84;4968612;28;20054;-75
2022/05/13 02:22:58;;;;;;;8.82;1.48;;;;;;;11.02;72.93;101187.88;4978323;28;20038;-75
2022/05/13 02:25:23;;;;;;;5.18;1.20;;;;;;;10.98;72.33;101188.72;4945577;28;20027;-75
2022/05/13 02:27:49;;;;;;;6.82;1.38;;;;;;;10.94;72.82;101191.22;4945195;28;20034;-75
2022/05/13 02:30:14;;;;;;;6.65;1.35;;;;;;;10.92;72.70;101185.97;4945020;28;20085;-74
2022/05/13 02:32:40;;;;;;;5.38;1.38;;;;;;;10.93;73.04;101192.34;4971530;28;20026;-75
2022/05/13 02:35:06;;;;;;;5.28;1.40;;;;;;;10.90;72.79;101190.16;4948070;29;20667;-75
2022/05/13 02:37:32;;;;;;;7.13;1.40;;;;;;;10.88;72.76;101192.34;4957689;28;20105;-75
2022/05/13 02:39:57;;;;;;;6.68;1.48;;;;;;;10.87;72.93;101190.69;4978215;28;20138;-75
2022/05/13 02:42:23;;;;;;;5.38;1.45;;;;;;;10.85;73.08;101195.69;4978464;28;20026;-75
2022/05/13 02:44:49;;;;;;;7.15;1.55;;;;;;;10.83;72.81;101190.41;4978290;28;20089;-75
2022/05/13 02:47:14;;;;;;;10.20;1.50;;;;;;;10.83;73.19;101195.13;4961055;28;20038;-75
2022/05/13 02:49:40;;;;;;;8.02;1.70;;;;;;;10.82;73.60;101191.53;4944555;28;20037;-75
2022/05/13 02:52:06;;;;;;;6.90;1.50;;;;;;;10.78;73.18;101192.34;4945028;28;20030;-75
2022/05/13 02:54:31;;;;;;;4.60;1.20;;;;;;;10.77;73.47;101188.75;4932363;28;20026;-75
2022/05/13 02:56:57;;;;;;;8.43;1.48;;;;;;;10.74;73.79;101187.38;4969742;28;20172;-75
2022/05/13 02:59:22;;;;;;;3.03;0.95;;;;;;;10.74;73.15;101183.75;4977993;28;20031;-75
2022/05/13 03:01:48;;;;;;;7.30;1.40;;;;;;;10.70;73.27;101174.31;4960293;28;20038;-75
2022/05/13 03:04:13;;;;;;;4.75;1.10;;;;;;;10.67;73.52;101169.31;4960450;28;20105;-75
2022/05/13 03:06:39;;;;;;;4.18;1.45;;;;;;;10.65;73.35;101172.38;4943971;28;20027;-75
2022/05/13 03:09:04;;;;;;;8.02;1.55;;;;;;;10.63;73.69;101174.59;4976029;28;20403;-75
2022/05/13 03:11:30;;;;;;;3.85;1.20;;;;;;;10.62;73.50;101169.31;4952943;28;20193;-75
2022/05/13 03:13:55;;;;;;;5.40;1.45;;;;;;;10.59;73.21;101170.72;4941171;29;20039;-75
2022/05/13 03:16:23;;;;;;;6.68;1.38;;;;;;;10.55;73.83;101172.38;4940751;29;20369;-75
2022/05/13 03:18:52;;;;;;;3.78;1.20;;;;;;;10.54;73.76;101164.34;4941199;29;20023;-75
2022/05/13 03:21:18;;;;;;;5.32;1.30;;;;;;;10.55;73.64;101165.97;4958134;29;20027;-75
2022/05/13 03:23:43;;;;;;;3.53;1.38;;;;;;;10.50;74.23;101169.59;4958354;29;20027;-75
2022/05/13 03:26:13;;;;;;;4.72;0.95;;;;;;;10.50;74.31;101169.59;4958005;29;20035;-75
2022/05/13 03:28:39;;;;;;;5.10;1.35;;;;;;;10.47;74.08;101164.59;4958575;29;20071;-75
2022/05/13 03:31:04;;;;;;;5.88;1.30;;;;;;;10.46;74.44;101166.53;4957879;29;20050;-75
2022/05/13 03:33:30;;;;;;;7.25;1.25;;;;;;;10.44;74.55;101177.09;4958126;29;20082;-75
2022/05/13 03:35:55;;;;;;;7.43;1.50;;;;;;;10.42;74.14;101173.78;4958302;29;20031;-75
2022/05/13 03:38:21;;;;;;;2.88;1.15;;;;;;;10.42;74.25;101178.47;4940854;29;20125;-75
2022/05/13 03:40:47;;;;;;;3.33;1.13;;;;;;;10.38;74.48;101175.41;4940950;29;20046;-75
2022/05/13 03:43:12;;;;;;;4.82;1.42;;;;;;;10.36;74.42;101177.63;4958027;29;20020;-75
2022/05/13 03:45:38;;;;;;;5.80;1.15;;;;;;;10.34;74.17;101181.81;4957778;29;20488;-75
2022/05/13 03:48:04;;;;;;;5.88;1.27;;;;;;;10.28;74.45;101172.66;4957994;29;20050;-75
2022/05/13 03:50:30;;;;;;;5.50;1.08;;;;;;;10.27;74.71;101169.03;4944838;29;20044;-75
2022/05/13 03:52:56;;;;;;;5.05;1.25;;;;;;;10.24;74.72;101172.31;4925620;29;20374;-75
2022/05/13 03:55:22;;;;;;;3.28;1.00;;;;;;;10.23;74.69;101178.16;4954405;29;20035;-75
2022/05/13 03:57:48;;;;;;;4.60;1.13;;;;;;;10.21;74.53;101178.44;4941085;29;20128;-75
2022/05/13 04:00:15;;;;;;;5.13;1.10;;;;;;;10.19;74.41;101174.25;4924681;29;20036;-75
2022/05/13 04:02:40;;;;;;;4.53;1.10;;;;;;;10.19;74.95;101175.09;4957912;29;20035;-75
2022/05/13 04:10:35;;;;;;;4.45;1.10;;;;;;;10.10;74.71;101170.38;4942926;28;20066;-75
2022/05/13 04:18:29;;;;;;;2.60;1.00;;;;;;;10.01;74.97;101170.91;4946004;28;20061;-75
2022/05/13 04:20:54;;;;;;;4.18;1.00;;;;;;;9.99;74.78;101175.88;4976867;28;20066;-75
2022/05/13 04:23:20;;;;;;;4.15;1.45;;;;;;;9.98;74.55;101162.31;4927654;28;20084;-75
2022/05/13 04:25:45;;;;;;;5.10;1.13;;;;;;;9.95;74.66;101172.00;4976973;28;20030;-75
2022/05/13 04:28:11;;;;;;;4.13;1.30;;;;;;;9.92;74.79;101164.22;4959750;28;20046;-75
2022/05/13 04:30:36;;;;;;;5.18;1.10;;;;;;;9.91;74.65;101168.09;4976756;28;20506;-75
2022/05/13 04:33:02;;;;;;;2.85;1.05;;;;;;;9.88;74.59;101174.19;4959540;28;20031;-75
2022/05/13 04:35:28;;;;;;;3.80;1.27;;;;;;;9.86;74.85;101165.28;4959663;28;20041;-75
2022/05/13 04:37:54;;;;;;;3.97;1.00;;;;;;;9.83;74.58;101169.47;4976777;28;20042;-75
2022/05/13 04:40:19;;;;;;;4.40;1.00;;;;;;;9.82;74.94;101167.78;4976773;28;20030;-75
2022/05/13 04:42:51;;;;;;;5.38;1.02;;;;;;;9.81;74.60;101179.19;4976792;28;20042;-75
2022/05/13 04:45:27;;;;;;;3.30;0.90;;;;;;;9.79;74.41;101176.66;4962435;28;20027;-75
2022/05/13 04:50:50;;;;;;;6.03;1.20;;;;;;;9.77;74.44;101178.03;4977854;28;20049;-75
2022/05/13 04:53:20;;;;;;;3.78;1.10;;;;;;;9.74;74.68;101187.75;4962764;28;20050;-75
2022/05/13 04:55:47;;;;;;;4.95;0.85;;;;;;;9.72;74.62;101189.13;4943535;29;20039;-75
2022/05/13 04:58:12;;;;;;;2.90;1.20;;;;;;;9.72;74.56;101183.56;4972674;28;20038;-75
2022/05/13 05:00:38;;;;;;;2.75;1.00;;;;;;;9.73;74.76;101185.25;4979695;28;20054;-75
2022/05/13 05:03:03;;;;;;;2.45;1.05;;;;;;;9.73;74.67;101191.63;4937357;28;20038;-75
2022/05/13 05:05:30;;;;;;;3.05;1.20;;;;;;;9.72;74.94;101195.53;4963736;28;20053;-70
2022/05/13 05:07:56;;;;;;;2.00;1.05;;;;;;;9.72;74.85;101200.22;4979172;28;20034;-70
2022/05/13 05:10:21;;;;;;;3.65;1.05;;;;;;;9.75;75.12;101202.44;4962437;28;20090;-70
2022/05/13 05:12:49;;;;;;;4.82;1.20;;;;;;;9.76;75.55;101199.41;4944909;28;20115;-70
2022/05/13 05:15:15;;;;;;;4.43;1.15;;;;;;;9.83;76.55;101200.00;4959852;29;20094;-70
2022/05/13 05:17:40;;;;;;;2.83;1.15;;;;;;;9.87;76.63;101202.22;4943419;29;20039;-70
2022/05/13 05:20:06;;;;;;;2.03;1.05;;;;;;;9.92;76.51;101214.16;4911511;29;20476;-70
2022/05/13 05:22:32;;;;;;;2.47;1.02;;;;;;;9.94;76.82;101209.16;4912000;29;20468;-70
2022/05/13 05:24:57;;;;;;;4.20;1.52;;;;;;;10.00;76.16;101221.09;4911654;29;20023;-70
2022/05/13 05:27:23;;;;;;;4.03;1.25;;;;;;;10.04;75.65;101216.69;4960364;29;20062;-70
2022/05/13 05:29:49;;;;;;;3.17;1.20;;;;;;;10.07;75.20;101211.41;4960066;29;20040;-70
2022/05/13 05:32:14;;;;;;;3.20;0.98;;;;;;;10.12;75.14;101218.94;4960235;29;20142;-70
2022/05/13 05:34:40;;;;;;;2.30;1.10;;;;;;;10.16;75.49;101222.81;4927215;29;20376;-70
2022/05/13 05:37:06;;;;;;;2.55;1.00;;;;;;;10.20;75.17;101226.72;4927240;29;20126;-71
2022/05/13 05:39:31;;;;;;;3.30;1.40;;;;;;;10.25;75.85;101223.13;4942571;29;20034;-70
2022/05/13 05:41:57;;;;;;;3.13;1.10;;;;;;;10.30;75.91;101231.50;4942953;29;20038;-70
2022/05/13 05:44:22;;;;;;;3.17;1.40;;;;;;;10.37;75.71;101228.47;4941943;28;20043;-70
2022/05/13 05:46:48;;;;;;;4.80;1.45;;;;;;;10.43;75.40;101236.53;4959790;29;20027;-70
2022/05/13 05:49:13;;;;;;;6.05;1.33;;;;;;;10.49;75.52;101235.41;4947195;29;20599;-70
2022/05/13 05:51:40;;;;;;;3.53;1.65;;;;;;;10.54;75.41;101237.38;4959696;29;20035;-70
2022/05/13 05:59:45;;;;;;;3.63;1.70;;;;;;;10.78;75.62;101248.78;4929275;29;20035;-71
2022/05/13 06:02:11;;;;;;;4.25;1.50;;;;;;;10.86;75.92;101250.16;4959617;29;20576;-70
2022/05/13 06:04:37;;;;;;;3.90;1.67;;;;;;;10.95;76.33;101251.28;4942530;29;20031;-70
2022/05/13 06:07:07;;;;;;;4.97;1.55;;;;;;;11.05;76.13;101256.00;4963979;28;20042;-70
2022/05/13 06:09:33;;;;;;;3.28;1.15;;;;;;;11.15;75.93;101254.03;4966431;28;20050;-70
2022/05/13 06:11:58;;;;;;;3.55;1.50;;;;;;;11.28;75.65;101252.63;4926359;29;20063;-70
2022/05/13 06:14:24;;;;;;;2.90;1.50;;;;;;;11.43;75.28;101256.50;4942115;29;20048;-70
2022/05/13 06:16:51;;;;;;;2.90;1.27;;;;;;;11.58;75.40;101262.00;4942069;29;20039;-70
2022/05/13 06:19:16;;;;;;;4.25;1.52;;;;;;;11.73;75.41;101259.19;4907824;29;20477;-70
2022/05/13 06:21:42;;;;;;;4.78;1.40;;;;;;;11.91;77.60;101256.94;4926168;29;20058;-70
2022/05/13 06:24:07;;;;;;;4.53;2.13;;;;;;;12.11;77.19;101264.34;4926148;29;20030;-71
2022/05/13 06:26:33;;;;;;;4.93;1.67;;;;;;;12.30;75.94;101252.25;4942291;29;20054;-71
2022/05/13 06:28:58;;;;;;;3.50;1.65;;;;;;;12.52;76.12;101259.38;4907394;29;20039;-71
2022/05/13 06:31:24;;;;;;;4.32;1.83;;;;;;;12.77;78.14;101249.16;4925088;29;20506;-71
2022/05/13 06:33:50;;;;;;;4.93;1.67;;;;;;;13.01;80.10;101254.81;4941972;29;20111;-71
2022/05/13 06:36:16;;;;;;;10.68;2.80;;;;;;;13.25;79.90;101260.44;4958782;29;20042;-71
2022/05/13 06:38:41;;;;;;;5.90;1.75;;;;;;;13.49;73.37;101258.56;4949072;29;20031;-71
2022/05/13 06:41:07;;;;;;;8.27;2.05;;;;;;;13.74;75.88;101259.41;4930903;28;20031;-71
2022/05/13 06:43:32;;;;;;;6.30;1.67;;;;;;;13.95;71.20;101249.63;4933385;29;20026;-71
2022/05/13 06:45:58;;;;;;;7.10;1.95;;;;;;;14.23;73.64;101258.19;4925974;29;20067;-71
2022/05/13 06:48:24;;;;;;;9.00;2.30;;;;;;;14.46;71.65;101251.75;4925911;29;20035;-71
2022/05/13 06:50:49;;;;;;;7.15;1.55;;;;;;;14.71;70.91;101252.50;4958690;29;20087;-71
2022/05/13 06:53:16;;;;;;;5.20;1.63;;;;;;;14.97;69.09;101259.34;4925026;29;20062;-71
2022/05/13 06:55:43;;;;;;;12.23;2.08;;;;;;;15.14;71.55;101260.75;4941243;29;20035;-69
2022/05/13 06:58:09;;;;;;;7.85;2.10;;;;;;;15.39;71.16;101268.66;4909768;29;20117;-69
2022/05/13 07:00:34;;;;;;;7.85;1.50;;;;;;;15.63;68.43;101267.69;4960115;28;20042;-69
2022/05/13 07:03:00;;;;;;;6.82;1.73;;;;;;;15.84;65.84;101265.31;4913601;29;20027;-69
2022/05/13 07:05:26;;;;;;;8.40;1.50;;;;;;;15.95;70.03;101275.16;4940610;29;20047;-69
2022/05/13 07:07:52;;;;;;;6.32;2.10;;;;;;;16.14;65.37;101274.22;4950506;29;20118;-69
2022/05/13 07:10:17;;;;;;;8.32;1.63;;;;;;;16.33;68.01;101274.09;4958465;29;20079;-70
2022/05/13 07:12:43;;;;;;;6.68;1.33;;;;;;;16.54;64.40;101276.09;4975537;28;20091;-70
2022/05/13 07:15:13;;;;;;;9.20;1.65;;;;;;;16.73;62.93;101270.34;4959964;28;20038;-69
2022/05/13 07:17:39;;;;;;;8.95;2.03;;;;;;;16.85;64.29;101278.22;4977732;28;20101;-69
2022/05/13 07:20:05;;;;;;;8.88;2.10;;;;;;;16.96;65.12;101281.59;4960183;28;20080;-69
2022/05/13 07:22:31;;;;;;;7.05;1.52;;;;;;;17.16;61.67;101280.25;4977914;28;20034;-69
2022/05/13 07:24:56;;;;;;;7.05;1.50;;;;;;;17.25;62.56;101283.16;4944366;28;20031;-69
2022/05/13 07:27:22;;;;;;;7.95;1.60;;;;;;;17.38;62.40;101283.06;4941047;28;20055;-69
2022/05/13 07:29:47;;;;;;;9.55;1.90;;;;;;;17.53;62.72;101281.81;4942668;28;20043;-69
2022/05/13 07:32:13;;;;;;;10.55;1.98;;;;;;;17.69;63.33;101282.22;4944194;28;20031;-69
2022/05/13 07:34:39;;;;;;;9.20;1.85;;;;;;;17.83;59.59;101288.59;4939183;29;20090;-69
2022/05/13 07:37:04;;;;;;;8.23;1.50;;;;;;;17.93;61.55;101292.25;4941302;28;20018;-69
2022/05/13 07:42:14;;;;;;;9.00;1.75;;;;;;;18.18;61.93;101296.31;4960147;28;20022;-70
2022/05/13 07:44:40;;;;;;;9.27;1.70;;;;;;;18.28;61.07;101301.63;4945054;29;20091;-70
2022/05/13 07:47:06;;;;;;;10.77;1.90;;;;;;;18.36;60.29;101294.34;4954596;28;20118;-69
2022/05/13 07:49:33;;;;;;;9.20;1.77;;;;;;;18.56;59.94;101301.38;4944029;28;20476;-70
2022/05/13 07:51:59;;;;;;;11.43;1.95;;;;;;;18.78;57.54;101300.38;4959616;28;20034;-69
2022/05/13 07:54:25;;;;;;;8.27;1.58;;;;;;;18.88;58.12;101303.69;4959861;28;20427;-70
2022/05/13 07:56:50;;;;;;;11.18;1.67;;;;;;;19.00;57.72;101307.84;4939465;28;20058;-69
2022/05/13 07:59:16;;;;;;;6.80;1.38;;;;;;;19.19;57.94;101305.50;4940754;29;20031;-69
2022/05/13 08:01:41;;;;;;;6.00;1.25;;;;;;;19.28;56.50;101300.72;4920162;28;20035;-69
2022/05/13 08:04:07;;;;;;;6.10;1.25;;;;;;;19.47;56.24;101310.75;4943962;28;20488;-69
2022/05/13 08:06:32;;;;;;;10.70;1.50;;;;;;;19.57;55.02;101308.41;4941959;28;20028;-70
2022/05/13 08:08:58;;;;;;;6.93;1.65;;;;;;;19.75;53.80;101305.56;4944171;28;20041;-70
2022/05/13 08:11:26;;;;;;;5.82;1.30;;;;;;;19.76;53.62;101305.25;4976954;28;20070;-70
2022/05/13 08:13:52;;;;;;;7.07;1.38;;;;;;;19.77;53.80;101312.53;4977056;28;20031;-70
2022/05/13 08:16:21;;;;;;;4.28;1.00;;;;;;;19.77;53.34;101309.69;4925813;28;20122;-70
2022/05/13 08:18:47;;;;;;;6.93;1.30;;;;;;;19.62;53.82;101298.97;4944974;28;20027;-69
2022/05/13 08:21:12;;;;;;;9.13;1.80;;;;;;;19.59;54.13;101308.91;4947613;28;20039;-69
2022/05/13 08:23:38;;;;;;;6.78;1.45;;;;;;;19.56;53.54;101306.78;4944585;29;20069;-69
2022/05/13 08:26:04;;;;;;;8.20;1.33;;;;;;;19.51;52.84;101309.75;4943119;28;20031;-69
2022/05/13 08:28:29;;;;;;;9.23;1.58;;;;;;;19.30;53.16;101306.00;4947397;28;20050;-68
2022/05/13 08:30:55;;;;;;;6.07;1.48;;;;;;;19.17;54.40;101299.41;4963039;28;20039;-69
2022/05/13 08:33:21;;;;;;;8.98;1.42;;;;;;;19.12;54.79;101308.00;4983592;28;20034;-69
2022/05/13 08:35:48;;;;;;;7.15;1.20;;;;;;;19.18;54.69;101309.50;4967755;28;20031;-69
2022/05/13 08:38:15;;;;;;;7.32;1.48;;;;;;;19.30;54.82;101312.44;4980553;28;20100;-69
2022/05/13 08:40:50;;;;;;;9.15;1.33;;;;;;;19.46;55.30;101311.94;4980758;28;20062;-69
2022/05/13 08:43:28;;;;;;;4.75;1.23;;;;;;;19.63;54.75;101306.25;4980479;28;20031;-69
2022/05/13 08:46:01;;;;;;;6.40;1.27;;;;;;;19.75;54.21;101311.19;4946843;28;20027;-75
2022/05/13 08:49:05;;;;;;;6.50;1.20;;;;;;;19.94;52.22;101308.81;4960329;28;20031;-74
2022/05/13 08:53:06;;;;;;;5.80;0.98;;;;;;;20.19;51.70;101309.84;4896469;29;20067;-74
2022/05/13 08:54:56;;;;;;;5.00;1.20;;;;;;;20.43;51.23;101308.41;4972902;28;20034;-74
2022/05/13 08:57:21;;;;;;;8.85;1.60;;;;;;;20.53;50.37;101308.00;4943913;29;20035;-74
2022/05/13 08:59:54;;;;;;;6.35;1.20;;;;;;;20.59;49.48;101311.44;4927606;28;20070;-74
2022/05/13 09:02:40;;;;;;;9.63;1.05;;;;;;;20.62;48.99;101308.78;4940577;28;20376;-74
2022/05/13 09:05:35;;;;;;;7.18;1.00;;;;;;;20.54;47.26;101315.31;4932562;28;20163;-74
2022/05/13 09:08:01;;;;;;;4.72;1.20;;;;;;;20.55;48.08;101319.78;4941819;28;20033;-74
2022/05/13 09:10:27;;;;;;;8.18;1.63;;;;;;;20.39;48.22;101330.78;4946361;28;20491;-74
2022/05/13 09:13:20;;;;;;;6.00;1.05;;;;;;;20.27;48.16;101328.72;4928325;29;20516;-74
2022/05/13 09:15:49;;;;;;;;;;;;;;;20.18;48.57;101316.66;4911353;29;20078;-74
2022/05/13 09:18:34;;;;;;;5.22;1.20;;;;;;;20.22;48.94;101314.81;4954849;29;19914;-74
2022/05/13 09:21:02;;;;;;;5.43;1.00;;;;;;;20.29;48.68;101314.28;4908320;29;20039;-74
2022/05/13 09:23:29;;;;;;;5.40;1.10;;;;;;;20.29;48.24;101315.09;4927725;29;20034;-74
2022/05/13 09:26:08;;;;;;;4.82;1.13;;;;;;;20.36;47.84;101308.91;4909034;29;20489;-74
2022/05/13 09:28:35;;;;;;;6.13;1.40;;;;;;;20.37;46.43;101309.78;4943389;29;20602;-74
2022/05/13 09:31:17;;;;;;;5.60;1.10;;;;;;;20.56;46.31;101304.53;4971528;28;20035;-74
2022/05/13 09:33:46;;;;;;;6.07;1.00;;;;;;;20.81;46.97;101307.47;4960304;29;20500;-74
2022/05/13 09:36:21;;;;;;;7.70;1.10;;;;;;;20.81;45.79;101301.81;4942973;29;20059;-75
2022/05/13 09:38:57;;;;;;;4.60;1.13;;;;;;;20.89;45.57;101306.56;4960064;29;20106;-74
2022/05/13 09:41:31;;;;;;;4.95;0.98;;;;;;;20.97;44.38;101295.19;4927055;29;20054;-74
2022/05/13 09:44:04;;;;;;;6.38;0.90;;;;;;;21.04;45.98;101305.13;4960005;29;20475;-74
2022/05/13 09:46:35;;;;;;;4.97;0.95;;;;;;;21.17;44.65;101296.38;4942385;29;20118;-74
2022/05/13 09:49:03;;;;;;;3.35;0.82;;;;;;;21.36;43.26;101292.19;4959710;29;20035;-74
2022/05/13 09:51:35;;;;;;;3.90;0.88;;;;;;;21.61;43.57;101299.56;4959868;29;20039;-74
2022/05/13 09:54:15;;;;;;;6.38;0.95;;;;;;;21.55;43.64;101288.84;4942645;29;20031;-74
2022/05/13 09:56:45;;;;;;;3.83;0.80;;;;;;;21.73;43.40;101292.28;4927059;29;20031;-74
2022/05/13 09:59:21;;;;;;;6.55;0.93;;;;;;;21.86;43.14;101297.59;4948873;28;20037;-74
2022/05/13 10:01:47;;;;;;;2.67;0.85;;;;;;;21.86;43.74;101296.78;4957986;28;20444;-74
2022/05/13 10:04:29;;;;;;;6.38;1.30;;;;;;;21.93;42.35;101297.03;4932915;28;20078;-74
2022/05/13 10:07:05;;;;;;;6.32;0.88;;;;;;;22.06;42.38;101301.53;4943530;28;20058;-74
2022/05/13 10:15:34;;;;;;;5.20;0.77;;;;;;;22.64;42.02;101290.03;4956922;28;20041;-74
2022/05/13 10:18:22;;;;;;;5.00;0.90;;;;;;;22.88;40.94;101291.16;4947310;28;20035;-74
2022/05/13 10:20:48;;;;;;;3.78;0.70;;;;;;;23.03;39.94;101289.59;4961209;28;20131;-74
2022/05/13 10:23:21;;;;;;;3.63;0.60;;;;;;;23.23;39.27;101293.41;4945329;28;20039;-74
2022/05/13 10:26:02;;;;;;;2.63;0.57;;;;;;;23.45;39.87;101294.84;4959877;28;20436;-74
2022/05/13 10:28:37;;;;;;;6.57;1.10;;;;;;;23.36;40.42;101287.31;4962169;28;20041;-74
2022/05/13 10:31:08;;;;;;;3.80;0.98;;;;;;;23.48;39.97;101285.59;4946110;28;20031;-74
2022/05/13 10:33:36;;;;;;;3.88;1.00;;;;;;;23.52;40.18;101286.53;4959938;28;20587;-74
2022/05/13 10:36:04;;;;;;;3.50;0.70;;;;;;;23.56;39.44;101281.78;4961020;28;20035;-74
2022/05/13 10:39:08;;;;;;;4.00;0.80;;;;;;;23.63;40.48;101281.97;4960917;28;20125;-74
2022/05/13 10:41:45;;;;;;;5.43;0.80;;;;;;;23.68;39.48;101273.19;4936865;28;20118;-74
2022/05/13 10:44:26;;;;;;;4.45;0.88;;;;;;;23.84;38.44;101285.38;4964465;28;20439;-74
2022/05/13 10:46:53;;;;;;;3.05;0.80;;;;;;;23.92;38.87;101277.06;4960880;28;20039;-74
2022/05/13 10:49:18;;;;;;;2.60;0.52;;;;;;;23.99;37.85;101263.88;4930873;28;20085;-74
2022/05/13 10:52:07;;;;;;;3.75;0.73;;;;;;;24.04;38.32;101271.28;4944753;28;20030;-74
2022/05/13 10:54:45;;;;;;;2.88;0.70;;;;;;;24.02;36.85;101268.00;4970228;28;20039;-74
2022/05/13 10:57:21;;;;;;;2.83;0.68;;;;;;;23.97;38.20;101268.28;4961126;28;20169;-74
2022/05/13 11:00:26;;;;;;;2.10;0.57;;;;;;;24.03;38.35;101261.94;4922532;28;20038;-74
2022/05/13 11:03:22;;;;;;;4.05;0.73;;;;;;;24.01;38.57;101267.16;4881519;29;20096;-74
2022/05/13 11:06:12;;;;;;;2.78;0.70;;;;;;;24.01;37.56;101270.00;4876233;29;20498;-74
2022/05/13 11:08:46;;;;;;;2.90;1.00;;;;;;;24.20;37.56;101272.06;4873871;29;20047;-74
2022/05/13 11:11:13;;;;;;;4.97;0.98;;;;;;;24.40;38.22;101270.09;4903234;29;20130;-74
2022/05/13 11:13:43;;;;;;;4.93;0.70;;;;;;;24.68;37.23;101263.47;4901772;29;20036;-74
2022/05/13 11:16:18;;;;;;;3.08;0.68;;;;;;;25.02;37.34;101256.06;4901190;29;20111;-74
2022/05/13 11:19:06;;;;;;;2.53;0.68;;;;;;;25.10;36.61;101262.72;4902241;29;20040;-74
2022/05/13 11:21:41;;;;;;;9.95;1.55;;;;;;;24.83;36.90;101267.44;4917793;29;20080;-74
2022/05/13 11:27:44;;;;;;;4.43;0.80;;;;;;;24.48;36.27;101259.78;4899102;29;20577;-74
2022/05/13 11:30:12;;;;;;;5.57;0.77;;;;;;;24.43;37.10;101258.06;4917361;29;20078;-74
2022/05/13 11:32:55;;;;;;;4.35;0.80;;;;;;;24.22;37.34;101252.66;4917636;29;20066;-74
2022/05/13 11:35:47;;;;;;;2.88;0.70;;;;;;;24.34;37.46;101262.25;4917557;29;20522;-74
2022/05/13 11:38:28;;;;;;;3.87;0.60;;;;;;;24.41;38.81;101245.41;4935641;28;20026;-74
2022/05/13 11:41:03;;;;;;;4.65;0.80;;;;;;;24.62;38.19;101240.22;4945588;28;20308;-74
2022/05/13 11:43:34;;;;;;;1.42;0.50;;;;;;;24.82;37.63;101237.38;4959870;28;20023;-74
2022/05/13 11:46:09;;;;;;;5.45;0.85;;;;;;;24.87;36.98;101237.09;4977117;28;20035;-74
2022/05/13 11:48:41;;;;;;;3.00;1.00;;;;;;;25.03;36.86;101240.66;4977346;28;20066;-74
2022/05/13 11:51:10;;;;;;;3.47;0.80;;;;;;;24.84;36.95;101246.34;4928818;29;20444;-74
2022/05/13 11:53:42;;;;;;;5.40;1.00;;;;;;;24.82;36.29;101243.06;4944285;28;20628;-74
2022/05/13 11:56:16;;;;;;;4.78;0.85;;;;;;;24.72;36.52;101241.66;4963908;28;20077;-74
2022/05/13 11:59:23;;;;;;;3.90;0.85;;;;;;;24.50;36.30;101240.34;4963868;28;20045;-74
2022/05/13 12:01:49;;;;;;;4.00;1.00;;;;;;;24.15;36.72;101240.31;4936722;28;20047;-74
2022/05/13 12:04:14;;;;;;;3.75;0.80;;;;;;;24.06;37.26;101235.66;4963828;28;20042;-73
2022/05/13 12:06:52;;;;;;;2.42;0.63;;;;;;;24.00;37.09;101233.50;4944656;28;20047;-74
2022/05/13 12:09:24;;;;;;;3.38;0.68;;;;;;;23.95;37.16;101230.94;4963787;28;20035;-74
2022/05/13 12:12:05;;;;;;;4.10;0.65;;;;;;;24.00;38.47;101222.16;4958689;28;20544;-74